createdAt,value
2023-02-28T12:18:13.572Z,100862.34
2023-02-28T12:20:43.090Z,100861.03
2023-02-28T12:23:27.935Z,100849.78
2023-02-28T12:26:26.129Z,100834.44
2023-02-28T12:29:02.935Z,100829.31
2023-02-28T12:31:40.155Z,100838.91
2023-02-28T12:34:16.753Z,100826.94
2023-02-28T12:36:50.293Z,100826.97
2023-02-28T12:39:31.199Z,100829.34
2023-02-28T12:42:15.581Z,100833.41
2023-02-28T12:44:54.210Z,100830.16
2023-02-28T12:47:23.959Z,100830.16
2023-02-28T12:50:02.436Z,100834.59
2023-02-28T12:52:55.310Z,100828.59
2023-02-28T12:56:21.348Z,100828.59
2023-02-28T12:58:57.879Z,100814.13
2023-02-28T13:01:34.170Z,100813.31
2023-02-28T13:04:40.740Z,100812.53
2023-02-28T13:07:37.824Z,100808.53
2023-02-28T13:10:10.190Z,100813.34
2023-02-28T13:12:49.841Z,100771.25
2023-02-28T13:15:30.800Z,100783.47
2023-02-28T13:18:02.356Z,100802.06
2023-02-28T13:20:40.148Z,100794.69
2023-02-28T13:23:49.604Z,100805.31
2023-02-28T13:26:19.176Z,100805.25
2023-02-28T13:28:56.370Z,100797.63
2023-02-28T13:31:28.174Z,100799.69
2023-02-28T13:34:05.156Z,100799.69
2023-02-28T13:36:36.041Z,100796.53
2023-02-28T13:39:26.488Z,100796.97
2023-02-28T13:41:56.054Z,100792.88
2023-02-28T13:44:29.133Z,100790.88
2023-02-28T13:46:58.743Z,100792.06
2023-02-28T13:49:36.546Z,100796.44
2023-02-28T13:52:16.501Z,100800.81
2023-02-28T13:55:04.552Z,100779.69
2023-02-28T13:58:03.312Z,100807.69
2023-02-28T14:00:50.792Z,100818.88
2023-02-28T14:03:55.290Z,100819.25
2023-02-28T14:06:37.057Z,100816.88
2023-02-28T14:09:22.124Z,100811.56
2023-02-28T14:11:52.275Z,100810.38
2023-02-28T14:14:40.287Z,100796.97
2023-02-28T14:17:17.102Z,100798.28
2023-02-28T14:19:52.146Z,100803.09
2023-02-28T14:22:48.967Z,100806.28
2023-02-28T14:25:25.834Z,100809.94
2023-02-28T14:28:17.169Z,100795.34
2023-02-28T14:30:49.542Z,100805.09
2023-02-28T14:33:37.258Z,100811.88
2023-02-28T14:36:19.865Z,100808.22
2023-02-28T14:38:56.132Z,100800.91
2023-02-28T14:41:41.316Z,100771.09
2023-02-28T14:44:26.532Z,100800.38
2023-02-28T14:46:57.716Z,100793.91
2023-02-28T14:49:31.532Z,100801.09
2023-02-28T14:52:16.291Z,100795.38
2023-02-28T14:54:47.483Z,100791.31
2023-02-28T14:57:28.142Z,100796.13
2023-02-28T15:00:01.862Z,100792.06
2023-02-28T15:02:37.438Z,100804.88
2023-02-28T15:05:19.051Z,100797.19
2023-02-28T15:07:49.978Z,100772.03
2023-02-28T15:10:29.754Z,100790.38
2023-02-28T15:13:02.836Z,100797.19
2023-02-28T15:16:02.008Z,100781.53
2023-02-28T15:18:55.280Z,100781.91
2023-02-28T15:21:27.377Z,100779.47
2023-02-28T15:24:00.038Z,100766.66
2023-02-28T15:26:38.784Z,100754.19
2023-02-28T15:29:11.278Z,100768.97
2023-02-28T15:31:56.914Z,100763.34
2023-02-28T15:34:45.803Z,100748.31
2023-02-28T15:37:36.354Z,100754.47
2023-02-28T15:40:34.482Z,100752.47
2023-02-28T15:43:25.346Z,100758.63
2023-02-28T15:46:10.193Z,100754.66
2023-02-28T15:48:57.649Z,100733.66
2023-02-28T15:51:41.243Z,100759.22
2023-02-28T15:54:11.683Z,100761.59
2023-02-28T15:56:49.685Z,100757.97
2023-02-28T15:59:27.638Z,100755.84
2023-02-28T16:02:23.573Z,100753.78
2023-02-28T16:05:17.028Z,100712.78
2023-02-28T16:07:46.971Z,100750.88
2023-02-28T16:10:17.151Z,100755.66
2023-02-28T16:12:47.689Z,100749.69
2023-02-28T16:15:32.525Z,100706.47
2023-02-28T16:18:02.144Z,100697.63
2023-02-28T16:20:33.970Z,100736.94
2023-02-28T16:23:05.284Z,100740.56
2023-02-28T16:25:45.227Z,100735.66
2023-02-28T16:28:34.853Z,100745.25
2023-02-28T16:31:06.611Z,100725.69
2023-02-28T16:33:36.951Z,100742.00
2023-02-28T16:36:07.000Z,100741.56
2023-02-28T16:38:36.782Z,100741.56
2023-02-28T16:41:06.666Z,100742.00
2023-02-28T16:43:36.383Z,100737.13
2023-02-28T16:46:06.280Z,100734.91
2023-02-28T16:48:35.946Z,100727.66
2023-02-28T16:51:07.268Z,100727.22
2023-02-28T16:53:36.963Z,100724.41
2023-02-28T16:56:08.741Z,100723.97
2023-02-28T16:58:38.395Z,100729.28
2023-02-28T17:01:08.351Z,100704.03
2023-02-28T17:03:39.280Z,100733.97
2023-02-28T17:06:18.900Z,100719.25
2023-02-28T17:08:48.884Z,100735.94
2023-02-28T17:11:19.136Z,100729.91
2023-02-28T17:13:50.068Z,100722.72
2023-02-28T17:16:37.153Z,100717.94
2023-02-28T17:19:10.008Z,100714.38
2023-02-28T17:21:40.115Z,100707.56
2023-02-28T17:24:12.573Z,100714.69
2023-02-28T17:26:44.169Z,100707.78
2023-02-28T17:29:24.546Z,100706.09
2023-02-28T17:31:54.205Z,100709.22
2023-02-28T17:34:24.152Z,100704.41
2023-02-28T17:36:54.888Z,100696.44
2023-02-28T17:39:28.267Z,100694.44
2023-02-28T17:41:58.238Z,100690.75
2023-02-28T17:44:28.205Z,100681.53
2023-02-28T17:46:58.867Z,100637.91
2023-02-28T17:49:28.729Z,100680.84
2023-02-28T17:51:58.383Z,100675.22
2023-02-28T17:54:28.242Z,100671.84
2023-02-28T17:56:57.986Z,100671.22
2023-02-28T17:59:27.645Z,100669.19
2023-02-28T18:01:57.393Z,100665.19
2023-02-28T18:04:29.449Z,100659.50
2023-02-28T18:07:02.464Z,100654.28
2023-02-28T18:09:32.086Z,100656.69
2023-02-28T18:12:01.817Z,100651.03
2023-02-28T18:14:31.452Z,100643.03
2023-02-28T18:17:02.078Z,100651.91
2023-02-28T18:19:31.734Z,100647.09
2023-02-28T18:22:02.339Z,100643.03
2023-02-28T18:24:32.261Z,100646.66
2023-02-28T18:27:01.929Z,100653.09
2023-02-28T18:29:31.791Z,100647.03
2023-02-28T18:32:03.846Z,100640.63
2023-02-28T18:34:33.788Z,100630.19
2023-02-28T18:37:03.498Z,100620.97
2023-02-28T18:39:34.971Z,100620.16
2023-02-28T18:42:04.569Z,100609.97
2023-02-28T18:44:34.335Z,100611.34
2023-02-28T18:47:04.053Z,100581.63
2023-02-28T18:49:37.274Z,100609.38
2023-02-28T18:52:07.078Z,100613.28
2023-02-28T18:54:37.603Z,100615.28
2023-02-28T18:57:07.722Z,100611.69
2023-02-28T18:59:38.148Z,100608.06
2023-02-28T19:02:07.878Z,100594.84
2023-02-28T19:04:37.600Z,100594.75
2023-02-28T19:07:07.545Z,100599.94
2023-02-28T19:09:37.628Z,100591.50
2023-02-28T19:12:07.611Z,100592.69
2023-02-28T19:14:37.506Z,100589.13
2023-02-28T19:17:07.307Z,100582.72
2023-02-28T19:19:37.025Z,100585.59
2023-02-28T19:22:06.610Z,100590.03
2023-02-28T19:24:36.406Z,100584.00
2023-02-28T19:27:06.104Z,100590.31
2023-02-28T19:29:35.768Z,100597.94
2023-02-28T19:32:06.080Z,100587.09
2023-02-28T19:34:35.887Z,100587.88
2023-02-28T19:37:05.598Z,100585.91
2023-02-28T19:39:44.253Z,100577.09
2023-02-28T19:42:20.247Z,100570.75
2023-02-28T19:44:49.879Z,100563.06
2023-02-28T19:47:19.490Z,100569.13
2023-02-28T19:49:49.157Z,100554.53
2023-02-28T19:52:18.834Z,100545.84
2023-02-28T19:54:48.402Z,100546.59
2023-02-28T19:57:18.389Z,100547.41
2023-02-28T19:59:48.303Z,100534.56
2023-02-28T20:02:21.052Z,100545.00
2023-02-28T20:04:52.904Z,100542.56
2023-02-28T20:07:23.141Z,100537.75
2023-02-28T20:09:52.861Z,100542.50
2023-02-28T20:12:24.971Z,100522.16
2023-02-28T20:14:59.382Z,100557.03
2023-02-28T20:17:30.498Z,100553.41
2023-02-28T20:20:00.255Z,100549.34
2023-02-28T20:22:29.899Z,100554.97
2023-02-28T20:24:59.570Z,100561.81
2023-02-28T20:27:29.528Z,100556.66
2023-02-28T20:29:59.396Z,100564.25
2023-02-28T20:32:29.162Z,100564.25
2023-02-28T20:34:59.530Z,100559.78
2023-02-28T20:37:30.207Z,100561.38
2023-02-28T20:39:59.825Z,100559.34
2023-02-28T20:42:29.476Z,100549.72
2023-02-28T20:44:59.148Z,100554.53
2023-02-28T20:47:28.892Z,100548.94
2023-02-28T20:49:58.504Z,100555.34
2023-02-28T20:52:28.102Z,100552.16
2023-02-28T20:54:57.753Z,100558.59
2023-02-28T20:57:30.405Z,100563.75
2023-02-28T21:00:00.095Z,100560.53
2023-02-28T21:02:29.895Z,100554.53
2023-02-28T21:04:59.509Z,100559.41
2023-02-28T21:07:31.117Z,100525.72
2023-02-28T21:10:00.764Z,100555.34
2023-02-28T21:12:30.474Z,100552.97
2023-02-28T21:15:00.149Z,100548.06
2023-02-28T21:17:31.288Z,100554.47
2023-02-28T21:20:00.912Z,100522.16
2023-02-28T21:22:30.488Z,100550.91
2023-02-28T21:25:00.101Z,100548.13
2023-02-28T21:27:29.745Z,100543.69
2023-02-28T21:29:59.296Z,100549.31
2023-02-28T21:32:29.022Z,100549.31
2023-02-28T21:34:58.631Z,100549.69
2023-02-28T21:37:28.361Z,100553.72
2023-02-28T21:39:57.998Z,100559.34
2023-02-28T21:42:27.995Z,100546.88
2023-02-28T21:44:59.288Z,100545.69
2023-02-28T21:47:31.779Z,100546.50
2023-02-28T21:50:01.423Z,100548.88
2023-02-28T21:52:31.179Z,100507.91
2023-02-28T21:55:01.070Z,100546.88
2023-02-28T21:57:30.879Z,100543.16
2023-02-28T22:00:01.930Z,100543.97
2023-02-28T22:02:31.539Z,100548.41
2023-02-28T22:05:05.080Z,100538.38
2023-02-28T22:07:34.812Z,100536.75
2023-02-28T22:10:04.630Z,100556.75
2023-02-28T22:12:34.247Z,100543.50
2023-02-28T22:15:03.826Z,100543.97
2023-02-28T22:17:33.460Z,100540.63
2023-02-28T22:20:03.014Z,100536.09
2023-02-28T22:22:32.658Z,100534.84
2023-02-28T22:25:02.395Z,100531.28
2023-02-28T22:27:32.057Z,100531.28
2023-02-28T22:30:01.757Z,100533.34
2023-02-28T22:32:31.476Z,100531.38
2023-02-28T22:35:01.075Z,100538.63
2023-02-28T22:37:30.896Z,100534.63
2023-02-28T22:40:00.444Z,100506.25
2023-02-28T22:42:29.998Z,100530.56
2023-02-28T22:44:59.657Z,100537.09
2023-02-28T22:47:29.307Z,100530.66
2023-02-28T22:49:58.863Z,100539.13
2023-02-28T22:52:29.461Z,100534.75
2023-02-28T22:55:00.380Z,100542.00
2023-02-28T22:57:30.033Z,100538.75
2023-02-28T22:59:59.705Z,100538.75
2023-02-28T23:02:29.309Z,100500.72
2023-02-28T23:04:59.079Z,100525.53
2023-02-28T23:07:28.827Z,100525.53
2023-02-28T23:09:58.427Z,100520.06
2023-02-28T23:12:28.899Z,100527.53
2023-02-28T23:14:58.541Z,100528.41
2023-02-28T23:17:28.145Z,100528.03
2023-02-28T23:19:57.798Z,100538.09
2023-02-28T23:22:27.452Z,100518.72
2023-02-28T23:24:57.065Z,100534.19
2023-02-28T23:27:26.703Z,100539.06
2023-02-28T23:29:56.250Z,100549.56
2023-02-28T23:32:25.783Z,100550.44
2023-02-28T23:34:56.915Z,100552.38
2023-02-28T23:37:26.525Z,100559.28
2023-02-28T23:39:56.210Z,100557.66
2023-02-28T23:42:25.874Z,100554.00
2023-02-28T23:44:55.489Z,100550.72
2023-02-28T23:47:25.300Z,100550.28
2023-02-28T23:49:55.135Z,100545.44
2023-02-28T23:52:24.899Z,100536.53
2023-02-28T23:54:54.492Z,100540.53
2023-02-28T23:57:24.758Z,100545.72
2023-02-28T23:59:54.385Z,100537.25
